createdAt,value
2022-10-17T00:01:04.943Z,3.55
2022-10-17T00:03:33.468Z,3.65
2022-10-17T00:06:09.007Z,3.22
2022-10-17T00:08:38.068Z,3.42
2022-10-17T00:11:08.709Z,3.30
2022-10-17T00:13:37.768Z,3.80
2022-10-17T00:16:05.649Z,4.43
2022-10-17T00:18:33.206Z,3.63
2022-10-17T00:21:00.808Z,3.88
2022-10-17T00:23:28.848Z,4.35
2022-10-17T00:26:05.250Z,4.20
2022-10-17T00:28:33.265Z,4.43
2022-10-17T00:31:04.112Z,4.13
2022-10-17T00:33:33.348Z,3.90
2022-10-17T00:36:12.771Z,4.00
2022-10-17T00:38:42.227Z,4.25
2022-10-17T00:41:11.770Z,4.60
2022-10-17T00:43:59.924Z,3.85
2022-10-17T00:46:33.427Z,3.72
2022-10-17T00:49:05.642Z,3.88
2022-10-17T00:51:45.447Z,3.80
2022-10-17T00:54:15.129Z,3.88
2022-10-17T00:56:43.783Z,4.10
2022-10-17T00:59:13.554Z,3.45
2022-10-17T01:01:43.688Z,4.03
2022-10-17T01:04:11.356Z,3.88
2022-10-17T01:06:40.307Z,4.07
2022-10-17T01:09:07.822Z,3.60
2022-10-17T01:11:38.103Z,3.58
2022-10-17T01:14:32.969Z,3.60
2022-10-17T01:17:11.203Z,3.13
2022-10-17T01:19:46.146Z,3.38
2022-10-17T01:22:27.662Z,4.18
2022-10-17T01:25:26.605Z,3.72
2022-10-17T01:28:18.882Z,3.22
2022-10-17T01:30:59.187Z,2.90
2022-10-17T01:33:38.506Z,2.80
2022-10-17T01:36:38.845Z,3.15
2022-10-17T01:39:43.915Z,2.80
2022-10-17T01:42:29.245Z,3.33
2022-10-17T01:45:05.083Z,3.20
2022-10-17T01:47:34.123Z,3.17
2022-10-17T01:50:15.782Z,3.78
2022-10-17T01:52:51.165Z,4.45
2022-10-17T01:55:29.629Z,3.80
2022-10-17T01:58:03.566Z,4.80
2022-10-17T02:03:04.849Z,4.50
2022-10-17T02:05:37.690Z,5.05
2022-10-17T02:08:06.544Z,5.68
2022-10-17T02:11:06.281Z,5.93
2022-10-17T02:17:05.667Z,7.03
2022-10-17T02:19:33.246Z,7.28
2022-10-17T02:22:35.847Z,6.80
2022-10-17T02:25:46.153Z,7.82
2022-10-17T02:28:19.824Z,7.80
2022-10-17T02:31:02.926Z,7.53
2022-10-17T02:33:45.025Z,8.02
2022-10-17T02:36:20.745Z,8.23
2022-10-17T02:38:50.527Z,7.80
2022-10-17T02:41:19.897Z,7.88
2022-10-17T02:43:49.921Z,7.57
2022-10-17T02:46:22.105Z,8.40
2022-10-17T02:49:22.305Z,8.30
2022-10-17T02:52:01.568Z,9.15
2022-10-17T02:54:39.905Z,10.23
2022-10-17T02:57:24.301Z,10.15
2022-10-17T02:59:52.586Z,9.60
2022-10-17T03:02:20.104Z,9.45
2022-10-17T03:04:48.161Z,10.05
2022-10-17T03:07:16.673Z,9.93
2022-10-17T03:09:44.527Z,10.18
2022-10-17T03:12:12.096Z,10.90
2022-10-17T03:14:39.726Z,11.20
2022-10-17T03:17:07.469Z,11.02
2022-10-17T03:19:35.081Z,12.25
2022-10-17T03:22:02.783Z,13.52
2022-10-17T03:24:31.655Z,12.88
2022-10-17T03:26:59.312Z,14.90
2022-10-17T03:29:26.945Z,14.65
2022-10-17T03:31:55.644Z,15.15
2022-10-17T03:34:23.525Z,16.80
2022-10-17T03:36:51.104Z,15.02
2022-10-17T03:39:19.650Z,16.30
2022-10-17T03:41:47.300Z,19.75
2022-10-17T03:44:15.405Z,18.92
2022-10-17T03:46:43.663Z,19.88
2022-10-17T03:49:11.280Z,19.80
2022-10-17T03:51:40.383Z,19.05
2022-10-17T03:54:12.544Z,17.60
2022-10-17T03:56:40.441Z,21.48
2022-10-17T03:59:16.585Z,21.13
2022-10-17T04:01:51.225Z,19.75
2022-10-17T04:04:19.805Z,19.98
2022-10-17T04:06:47.405Z,21.35
2022-10-17T04:09:15.463Z,20.98
2022-10-17T04:12:01.805Z,21.73
2022-10-17T04:14:31.548Z,20.45
2022-10-17T04:16:59.985Z,21.67
2022-10-17T04:19:28.220Z,19.50
2022-10-17T04:21:56.700Z,21.15
2022-10-17T04:24:25.863Z,21.50
2022-10-17T04:26:59.899Z,21.35
2022-10-17T04:29:30.420Z,21.95
2022-10-17T04:32:12.963Z,22.02
2022-10-17T04:34:50.251Z,22.02
2022-10-17T04:37:19.241Z,22.02
2022-10-17T04:39:48.324Z,21.75
2022-10-17T04:42:15.911Z,23.08
2022-10-17T04:44:43.942Z,22.30
2022-10-17T04:47:11.560Z,22.67
2022-10-17T04:49:42.730Z,21.77
2022-10-17T04:52:11.725Z,23.15
2022-10-17T04:54:46.302Z,22.48
2022-10-17T04:57:15.572Z,22.98
2022-10-17T04:59:50.883Z,23.35
2022-10-17T05:02:44.544Z,23.08
2022-10-17T05:05:12.099Z,21.80
2022-10-17T05:07:42.679Z,26.35
2022-10-17T05:12:44.467Z,24.58
2022-10-17T05:15:13.564Z,25.83
2022-10-17T05:17:41.943Z,26.48
2022-10-17T05:20:10.326Z,26.67
2022-10-17T05:22:41.958Z,27.00
2022-10-17T05:25:11.503Z,26.65
2022-10-17T05:27:39.263Z,26.45
2022-10-17T05:30:07.824Z,27.77
2022-10-17T05:32:36.841Z,27.60
2022-10-17T05:35:05.179Z,27.40
2022-10-17T05:37:33.639Z,27.27
2022-10-17T05:40:03.445Z,27.48
2022-10-17T05:42:31.826Z,27.05
2022-10-17T05:44:59.863Z,26.77
2022-10-17T05:47:28.073Z,25.23
2022-10-17T05:49:55.981Z,26.70
2022-10-17T05:52:32.945Z,26.40
2022-10-17T05:55:10.910Z,24.13
2022-10-17T05:57:38.881Z,23.58
2022-10-17T06:00:10.818Z,23.75
2022-10-17T06:02:48.902Z,22.55
2022-10-17T06:05:19.238Z,23.38
2022-10-17T06:07:49.298Z,23.08
2022-10-17T06:10:18.700Z,23.33
2022-10-17T06:12:46.662Z,24.42
2022-10-17T06:15:15.763Z,23.67
2022-10-17T06:17:47.848Z,24.27
2022-10-17T06:20:15.379Z,24.13
2022-10-17T06:22:43.442Z,24.00
2022-10-17T06:25:16.585Z,25.85
2022-10-17T06:27:44.675Z,24.23
2022-10-17T06:30:12.978Z,23.08
2022-10-17T06:32:40.502Z,24.27
2022-10-17T06:35:08.398Z,24.80
2022-10-17T06:37:38.039Z,23.48
2022-10-17T06:40:10.641Z,23.80
2022-10-17T06:42:39.700Z,21.85
2022-10-17T06:45:27.357Z,22.38
2022-10-17T06:48:09.038Z,22.58
2022-10-17T06:50:44.423Z,22.17
2022-10-17T06:53:16.344Z,20.00
2022-10-17T06:56:10.980Z,22.10
2022-10-17T06:58:49.637Z,22.27
2022-10-17T07:01:37.386Z,21.67
2022-10-17T07:04:05.949Z,22.63
2022-10-17T07:06:34.881Z,22.13
2022-10-17T07:09:09.679Z,21.80
2022-10-17T07:11:37.821Z,21.08
2022-10-17T07:14:05.422Z,21.38
2022-10-17T07:16:34.581Z,21.45
2022-10-17T07:19:15.980Z,20.98
2022-10-17T07:21:43.582Z,21.35
2022-10-17T07:24:12.303Z,20.42
2022-10-17T07:26:42.762Z,19.95
2022-10-17T07:29:11.101Z,21.17
2022-10-17T07:31:48.907Z,19.50
2022-10-17T07:34:16.568Z,18.25
2022-10-17T07:36:45.721Z,19.67
2022-10-17T07:39:15.297Z,19.77
2022-10-17T07:41:42.721Z,18.90
2022-10-17T07:44:11.841Z,18.65
2022-10-17T07:46:46.640Z,18.20
2022-10-17T07:49:14.300Z,17.42
2022-10-17T07:51:42.511Z,17.08
2022-10-17T07:54:10.341Z,18.10
2022-10-17T07:56:37.868Z,16.35
2022-10-17T07:59:08.452Z,15.48
2022-10-17T08:01:37.260Z,15.02
2022-10-17T08:04:04.780Z,14.73
2022-10-17T08:06:32.388Z,15.05
2022-10-17T08:09:01.702Z,14.65
2022-10-17T08:11:29.445Z,14.10
2022-10-17T08:13:56.981Z,13.60
2022-10-17T08:16:24.578Z,12.90
2022-10-17T08:18:52.161Z,13.20
2022-10-17T08:21:19.864Z,13.13
2022-10-17T08:23:47.337Z,14.48
2022-10-17T08:26:17.428Z,13.07
2022-10-17T08:28:45.083Z,13.68
2022-10-17T08:31:16.018Z,13.52
2022-10-17T08:33:43.640Z,13.68
2022-10-17T08:36:14.401Z,15.10
2022-10-17T08:38:43.828Z,15.40
2022-10-17T08:41:14.185Z,17.48
2022-10-17T08:44:26.680Z,17.80
2022-10-17T08:46:59.676Z,18.45
2022-10-17T08:49:53.184Z,20.77
2022-10-17T08:52:38.048Z,20.33
2022-10-17T08:55:16.271Z,22.77
2022-10-17T08:57:44.602Z,22.42
2022-10-17T09:00:20.300Z,22.77
2022-10-17T09:03:32.954Z,23.77
2022-10-17T09:06:35.469Z,21.50
2022-10-17T09:09:02.931Z,21.38
2022-10-17T09:11:42.288Z,20.77
2022-10-17T09:14:26.060Z,20.65
2022-10-17T09:17:08.562Z,20.77
2022-10-17T09:19:40.601Z,20.92
2022-10-17T09:22:19.663Z,19.92
2022-10-17T09:24:57.633Z,20.48
2022-10-17T09:27:38.792Z,20.23
2022-10-17T09:30:44.048Z,20.10
2022-10-17T09:33:35.511Z,20.70
2022-10-17T09:36:17.760Z,20.08
2022-10-17T09:38:49.831Z,19.55
2022-10-17T09:41:43.766Z,19.70
2022-10-17T09:44:33.632Z,21.25
2022-10-17T09:47:10.168Z,21.52
2022-10-17T09:49:43.232Z,20.80
2022-10-17T09:52:37.106Z,20.30
2022-10-17T09:55:15.881Z,20.27
2022-10-17T09:57:57.174Z,19.15
2022-10-17T10:00:39.200Z,19.00
2022-10-17T10:03:26.451Z,19.25
2022-10-17T10:06:18.300Z,18.08
2022-10-17T10:09:22.765Z,18.50
2022-10-17T10:11:54.251Z,17.80
2022-10-17T10:14:35.960Z,17.42
2022-10-17T10:17:07.049Z,15.57
2022-10-17T10:19:37.320Z,16.83
2022-10-17T10:22:14.425Z,15.68
2022-10-17T10:24:42.236Z,15.80
2022-10-17T10:27:17.731Z,15.77
2022-10-17T10:29:52.968Z,15.63
2022-10-17T10:32:26.406Z,15.82
2022-10-17T10:35:04.858Z,16.67
2022-10-17T10:37:43.754Z,15.60
2022-10-17T10:40:18.077Z,15.27
2022-10-17T10:43:01.292Z,15.27
2022-10-17T10:45:53.607Z,12.75
2022-10-17T10:48:33.992Z,13.77
2022-10-17T10:51:19.736Z,12.43
2022-10-17T10:53:59.603Z,12.55
2022-10-17T10:56:44.240Z,11.25
2022-10-17T10:59:29.810Z,12.25
2022-10-17T11:02:23.585Z,12.35
2022-10-17T11:05:18.880Z,13.00
2022-10-17T11:08:29.350Z,12.73
2022-10-17T11:11:24.080Z,12.57
2022-10-17T11:13:58.950Z,12.50
2022-10-17T11:16:35.890Z,11.50
2022-10-17T11:19:07.558Z,9.95
2022-10-17T11:22:19.428Z,10.93
2022-10-17T11:24:57.202Z,10.65
2022-10-17T11:31:41.847Z,11.68
2022-10-17T11:34:22.006Z,11.18
2022-10-17T11:36:53.312Z,11.88
2022-10-17T11:39:27.737Z,12.57
2022-10-17T11:42:07.387Z,13.60
2022-10-17T11:44:37.628Z,15.27
2022-10-17T11:47:34.288Z,14.65
2022-10-17T11:53:27.535Z,17.80
2022-10-17T11:55:58.367Z,16.05
2022-10-17T11:58:41.713Z,12.95
2022-10-17T12:01:38.079Z,11.90
2022-10-17T12:04:41.335Z,13.13
2022-10-17T12:07:27.884Z,12.02
2022-10-17T12:10:13.716Z,13.85
2022-10-17T12:12:41.218Z,13.63
2022-10-17T12:15:20.891Z,13.65
2022-10-17T12:18:03.192Z,13.55
2022-10-17T12:20:36.671Z,15.60
2022-10-17T12:23:04.185Z,15.70
2022-10-17T12:25:34.470Z,15.98
2022-10-17T12:28:29.478Z,14.55
2022-10-17T12:30:56.943Z,15.77
2022-10-17T12:33:30.105Z,13.98
2022-10-17T12:36:22.241Z,14.70
2022-10-17T12:39:14.805Z,14.30
2022-10-17T12:41:43.294Z,16.48
2022-10-17T12:44:13.897Z,16.38
2022-10-17T12:47:06.022Z,16.90
2022-10-17T12:49:48.066Z,17.65
2022-10-17T12:52:22.073Z,17.63
2022-10-17T12:55:11.457Z,17.58
2022-10-17T12:58:16.582Z,18.02
2022-10-17T13:01:19.053Z,17.90
2022-10-17T13:03:46.506Z,19.35
2022-10-17T13:06:24.952Z,19.05
2022-10-17T13:09:35.824Z,20.27
2022-10-17T13:12:11.197Z,18.77
2022-10-17T13:14:42.820Z,19.58
2022-10-17T13:17:26.344Z,20.00
2022-10-17T13:19:55.016Z,20.17
2022-10-17T13:22:26.286Z,19.38
2022-10-17T13:25:08.135Z,20.20
2022-10-17T13:27:37.625Z,19.75
2022-10-17T13:30:32.144Z,20.83
2022-10-17T13:33:01.431Z,20.38
2022-10-17T13:36:01.918Z,20.23
2022-10-17T13:38:24.982Z,18.75
2022-10-17T13:40:58.031Z,19.73
2022-10-17T13:43:31.286Z,20.65
2022-10-17T13:46:25.451Z,19.15
2022-10-17T13:51:20.886Z,18.05
2022-10-17T13:53:48.523Z,19.38
2022-10-17T13:56:29.610Z,19.48
2022-10-17T13:59:01.645Z,19.38
2022-10-17T14:01:30.798Z,20.85
2022-10-17T14:04:20.158Z,19.63
2022-10-17T14:06:49.621Z,20.20
2022-10-17T14:09:28.534Z,19.55
2022-10-17T14:12:08.694Z,19.73
2022-10-17T14:14:58.000Z,21.05
2022-10-17T14:17:29.205Z,21.63
2022-10-17T14:23:20.862Z,22.52
2022-10-17T14:25:41.512Z,22.50
2022-10-17T14:28:16.016Z,21.98
2022-10-17T14:30:57.310Z,22.17
2022-10-17T14:33:31.548Z,23.23
2022-10-17T14:38:30.072Z,21.27
2022-10-17T14:44:14.714Z,23.55
2022-10-17T14:46:50.286Z,22.92
2022-10-17T14:49:25.920Z,23.83
2022-10-17T14:52:18.848Z,23.95
2022-10-17T14:54:50.522Z,24.63
2022-10-17T14:57:17.880Z,25.48
2022-10-17T14:59:54.157Z,24.25
2022-10-17T15:02:23.501Z,25.90
2022-10-17T15:04:51.275Z,28.27
2022-10-17T15:07:19.054Z,27.80
2022-10-17T15:09:48.788Z,28.58
2022-10-17T15:12:20.713Z,29.85
2022-10-17T15:14:48.831Z,29.15
2022-10-17T15:17:24.394Z,30.17
2022-10-17T15:19:52.132Z,30.10
2022-10-17T15:22:19.649Z,29.70
2022-10-17T15:24:47.789Z,30.95
2022-10-17T15:27:20.529Z,29.30
2022-10-17T15:29:48.700Z,30.25
2022-10-17T15:32:16.395Z,29.27
2022-10-17T15:34:44.087Z,29.13
2022-10-17T15:37:22.196Z,29.70
2022-10-17T15:39:54.971Z,29.48
2022-10-17T15:42:26.772Z,27.50
2022-10-17T15:44:54.580Z,27.88
2022-10-17T15:47:34.421Z,28.15
2022-10-17T15:50:02.555Z,27.48
2022-10-17T15:52:29.960Z,27.55
2022-10-17T15:54:59.723Z,28.38
2022-10-17T15:57:35.689Z,28.10
2022-10-17T16:00:05.904Z,27.83
2022-10-17T16:02:36.861Z,29.95
2022-10-17T16:05:15.003Z,27.48
2022-10-17T16:07:46.280Z,28.35
2022-10-17T16:10:14.910Z,28.17
2022-10-17T16:12:42.766Z,28.00
2022-10-17T16:15:25.655Z,28.05
2022-10-17T16:17:55.893Z,28.08
2022-10-17T16:20:25.091Z,28.23
2022-10-17T16:22:59.819Z,28.23
2022-10-17T16:25:29.321Z,28.60
2022-10-17T16:27:59.426Z,29.38
2022-10-17T16:30:30.856Z,28.02
2022-10-17T16:32:58.412Z,27.80
2022-10-17T16:35:34.747Z,28.10
2022-10-17T16:38:06.852Z,28.17
2022-10-17T16:40:34.560Z,28.83
2022-10-17T16:43:02.246Z,28.60
2022-10-17T16:45:30.491Z,29.63
2022-10-17T16:47:58.012Z,28.92
2022-10-17T16:50:25.492Z,29.55
2022-10-17T16:52:52.923Z,30.05
2022-10-17T16:55:20.671Z,30.60
2022-10-17T16:57:49.340Z,30.88
2022-10-17T17:00:18.182Z,30.50
2022-10-17T17:02:47.960Z,31.33
2022-10-17T17:05:15.913Z,30.40
2022-10-17T17:07:43.412Z,29.23
2022-10-17T17:10:10.980Z,29.88
2022-10-17T17:12:38.411Z,27.92
2022-10-17T17:15:06.123Z,28.00
2022-10-17T17:17:48.836Z,27.98
2022-10-17T17:20:18.836Z,29.08
2022-10-17T17:22:46.361Z,29.13
2022-10-17T17:25:13.841Z,29.33
2022-10-17T17:27:41.390Z,27.85
2022-10-17T17:30:09.245Z,29.25
2022-10-17T17:32:36.821Z,28.45
2022-10-17T17:35:04.599Z,28.48
2022-10-17T17:37:32.309Z,28.40
2022-10-17T17:39:59.980Z,28.27
2022-10-17T17:42:27.621Z,27.42
2022-10-17T17:44:55.051Z,27.27
2022-10-17T17:47:22.484Z,26.92
2022-10-17T17:49:50.002Z,28.40
2022-10-17T17:52:17.391Z,27.85
2022-10-17T17:54:44.970Z,28.58
2022-10-17T17:57:12.921Z,27.55
2022-10-17T17:59:41.574Z,26.98
2022-10-17T18:02:11.254Z,25.48
2022-10-17T18:04:38.887Z,26.10
2022-10-17T18:07:06.406Z,26.25
2022-10-17T18:09:33.881Z,24.98
2022-10-17T18:12:01.535Z,26.67
2022-10-17T18:14:28.971Z,26.50
2022-10-17T18:16:56.461Z,26.55
2022-10-17T18:19:24.047Z,26.25
2022-10-17T18:21:51.530Z,26.98
2022-10-17T18:24:19.481Z,25.20
2022-10-17T18:26:47.319Z,25.05
2022-10-17T18:29:14.971Z,26.13
2022-10-17T18:31:43.090Z,24.58
2022-10-17T18:34:10.736Z,25.60
2022-10-17T18:36:38.320Z,24.80
2022-10-17T18:39:06.226Z,24.38
2022-10-17T18:41:34.084Z,24.85
2022-10-17T18:44:03.152Z,25.55
2022-10-17T18:46:36.082Z,25.55
2022-10-17T18:49:04.036Z,24.50
2022-10-17T18:51:31.475Z,25.40
2022-10-17T18:53:59.080Z,24.33
2022-10-17T18:56:27.022Z,25.60
2022-10-17T18:58:55.156Z,23.52
2022-10-17T19:01:25.167Z,24.38
2022-10-17T19:03:55.679Z,23.83
2022-10-17T19:06:27.884Z,24.13
2022-10-17T19:08:55.417Z,24.30
2022-10-17T19:11:25.367Z,24.00
2022-10-17T19:13:53.531Z,23.35
2022-10-17T19:16:27.732Z,23.30
2022-10-17T19:19:05.457Z,23.00
2022-10-17T19:21:34.103Z,23.80
2022-10-17T19:24:05.586Z,23.20
2022-10-17T19:26:36.256Z,24.13
2022-10-17T19:29:05.109Z,23.88
2022-10-17T19:31:34.340Z,23.38
2022-10-17T19:34:01.907Z,23.45
2022-10-17T19:36:33.623Z,22.33
2022-10-17T19:39:04.771Z,23.67
2022-10-17T19:41:33.206Z,23.42
2022-10-17T19:44:01.048Z,23.92
2022-10-17T19:46:29.707Z,22.05
2022-10-17T19:48:57.970Z,22.58
2022-10-17T19:51:26.544Z,22.95
2022-10-17T19:53:55.749Z,23.35
2022-10-17T19:56:25.155Z,21.27
2022-10-17T19:58:55.653Z,22.95
2022-10-17T20:01:29.191Z,22.90
2022-10-17T20:03:57.184Z,21.33
2022-10-17T20:06:24.655Z,22.63
2022-10-17T20:08:52.407Z,21.45
2022-10-17T20:11:25.309Z,21.70
2022-10-17T20:13:54.345Z,21.65
2022-10-17T20:16:25.262Z,20.92
2022-10-17T20:18:54.826Z,22.77
2022-10-17T20:21:28.711Z,21.02
2022-10-17T20:26:37.025Z,21.83
2022-10-17T20:29:12.301Z,19.70
2022-10-17T20:31:41.375Z,20.52
2022-10-17T20:34:12.965Z,21.00
2022-10-17T20:36:41.004Z,21.48
2022-10-17T20:39:10.815Z,21.20
2022-10-17T20:41:38.375Z,20.40
2022-10-17T20:44:07.062Z,19.73
2022-10-17T20:46:37.662Z,21.25
2022-10-17T20:49:08.687Z,19.55
2022-10-17T20:51:36.304Z,19.13
2022-10-17T20:54:04.429Z,20.73
2022-10-17T20:56:33.733Z,21.25
2022-10-17T20:59:07.351Z,21.58
2022-10-17T21:01:36.163Z,20.73
2022-10-17T21:04:33.342Z,20.55
2022-10-17T21:06:52.269Z,18.90
2022-10-17T21:09:20.346Z,18.05
2022-10-17T21:11:51.216Z,19.48
2022-10-17T21:14:19.014Z,19.38
2022-10-17T21:16:46.666Z,19.85
2022-10-17T21:19:15.585Z,20.85
2022-10-17T21:21:45.907Z,20.65
2022-10-17T21:24:17.404Z,20.15
2022-10-17T21:26:46.052Z,21.15
2022-10-17T21:29:14.189Z,20.50
2022-10-17T21:31:43.576Z,19.58
2022-10-17T21:34:17.827Z,21.63
2022-10-17T21:36:45.835Z,21.38
2022-10-17T21:39:14.646Z,21.42
2022-10-17T21:41:43.324Z,22.08
2022-10-17T21:44:16.585Z,21.10
2022-10-17T21:46:44.348Z,20.67
2022-10-17T21:49:13.894Z,21.65
2022-10-17T21:51:41.986Z,20.80
2022-10-17T21:54:09.376Z,20.77
2022-10-17T21:56:37.576Z,20.02
2022-10-17T21:59:05.526Z,20.02
2022-10-17T22:01:39.052Z,19.60
2022-10-17T22:04:10.165Z,19.45
2022-10-17T22:06:40.537Z,19.15
2022-10-17T22:09:17.936Z,18.90
2022-10-17T22:11:51.282Z,19.63
2022-10-17T22:14:20.417Z,18.60
2022-10-17T22:16:48.676Z,18.73
2022-10-17T22:19:22.833Z,17.45
2022-10-17T22:21:50.942Z,18.20
2022-10-17T22:26:48.845Z,16.15
2022-10-17T22:29:16.416Z,17.60
2022-10-17T22:31:44.425Z,17.30
2022-10-17T22:34:14.205Z,16.42
2022-10-17T22:36:42.697Z,17.17
2022-10-17T22:39:10.305Z,16.63
2022-10-17T22:41:37.806Z,16.05
2022-10-17T22:44:05.903Z,16.92
2022-10-17T22:46:33.825Z,15.65
2022-10-17T22:49:01.370Z,16.77
2022-10-17T22:51:28.745Z,15.88
2022-10-17T22:53:56.386Z,14.45
2022-10-17T22:56:24.063Z,15.02
2022-10-17T22:58:52.146Z,14.50
2022-10-17T23:01:22.587Z,15.70
2022-10-17T23:03:51.047Z,14.90
2022-10-17T23:06:18.751Z,16.13
2022-10-17T23:08:46.756Z,15.27
2022-10-17T23:11:14.339Z,15.85
2022-10-17T23:13:41.907Z,14.85
2022-10-17T23:16:09.715Z,15.15
2022-10-17T23:18:38.347Z,14.55
2022-10-17T23:21:06.224Z,13.40
2022-10-17T23:23:34.069Z,13.65
2022-10-17T23:26:10.320Z,12.23
2022-10-17T23:28:38.512Z,13.13
2022-10-17T23:31:11.305Z,12.52
2022-10-17T23:33:41.303Z,13.43
2022-10-17T23:36:10.813Z,14.95
2022-10-17T23:38:40.023Z,14.52
2022-10-17T23:41:08.075Z,13.38
2022-10-17T23:43:35.773Z,15.38
2022-10-17T23:46:04.792Z,16.05
2022-10-17T23:48:32.635Z,15.88
2022-10-17T23:51:00.226Z,15.35
2022-10-17T23:53:27.712Z,12.55
2022-10-17T23:55:55.157Z,11.93
2022-10-17T23:58:22.725Z,11.00
